Time;durP1;ratioP1;P1;durP2;ratioP2;P2;SDS_P1;SDS_P2;PMS_P1;PMS_P2;Temp;Humidity;BMP_temperature;BMP_pressure;BME280_temperature;BME280_humidity;BME280_pressure;Samples;Min_cycle;Max_cycle;Signal;HPM_P1;HPM_P2
2024/01/19 00:00:13;;;;;;;10.40;0.63;;;1.10;99.90;;;;;;5060993;28;20089;-50
2024/01/19 00:02:38;;;;;;;4.93;0.60;;;1.00;99.90;;;;;;5064387;28;20563;-49
2024/01/19 00:05:05;;;;;;;3.33;0.80;;;0.90;99.90;;;;;;5044742;28;20082;-49
2024/01/19 00:07:30;;;;;;;8.63;0.80;;;0.80;99.90;;;;;;5065962;28;20032;-51
2024/01/19 00:09:56;;;;;;;6.00;0.90;;;0.80;99.90;;;;;;5064573;28;20044;-50
2024/01/19 00:12:22;;;;;;;7.97;1.08;;;0.90;99.90;;;;;;5065605;28;20123;-49
2024/01/19 00:14:48;;;;;;;1.88;0.70;;;0.90;99.90;;;;;;5063800;28;20503;-50
2024/01/19 00:17:13;;;;;;;1.30;0.85;;;0.90;99.90;;;;;;5053926;28;20517;-48
2024/01/19 00:19:39;;;;;;;4.85;1.33;;;1.00;99.90;;;;;;5059161;28;20044;-49
2024/01/19 00:22:05;;;;;;;8.80;1.25;;;1.10;99.90;;;;;;5065959;28;20043;-47
2024/01/19 00:24:30;;;;;;;2.92;0.63;;;1.20;99.90;;;;;;5046906;28;20063;-51
2024/01/19 00:26:56;;;;;;;5.25;0.77;;;1.20;99.90;;;;;;5055033;28;20070;-50
2024/01/19 00:29:22;;;;;;;1.58;0.50;;;1.30;99.90;;;;;;5061527;28;20037;-52
2024/01/19 00:31:48;;;;;;;4.07;0.50;;;1.30;99.90;;;;;;5060064;28;20053;-50
2024/01/19 00:34:16;;;;;;;1.02;0.40;;;1.30;99.90;;;;;;5064540;28;20052;-50
2024/01/19 00:36:42;;;;;;;4.18;0.70;;;1.30;99.90;;;;;;5064228;28;20044;-51
2024/01/19 00:39:08;;;;;;;2.95;0.82;;;1.30;99.90;;;;;;5064362;28;20036;-53
2024/01/19 00:41:34;;;;;;;4.35;0.70;;;1.30;99.90;;;;;;5065305;28;20446;-48
2024/01/19 00:44:00;;;;;;;3.30;0.60;;;1.30;99.90;;;;;;5064885;28;20036;-49
2024/01/19 00:46:27;;;;;;;8.02;0.80;;;1.40;99.90;;;;;;5061810;28;20450;-48
2024/01/19 00:48:53;;;;;;;2.55;0.70;;;1.40;99.90;;;;;;5063994;28;20029;-49
2024/01/19 00:51:19;;;;;;;10.18;1.17;;;1.50;99.90;;;;;;5062059;28;20125;-51
2024/01/19 00:53:44;;;;;;;3.13;0.88;;;1.50;99.90;;;;;;5064966;28;20075;-48
2024/01/19 00:56:10;;;;;;;2.05;0.47;;;1.40;99.90;;;;;;5056784;28;20045;-48
2024/01/19 00:58:40;;;;;;;1.50;0.57;;;1.40;99.90;;;;;;5063007;28;20391;-47
2024/01/19 01:01:06;;;;;;;0.50;0.40;;;1.20;99.90;;;;;;5057107;28;20051;-50
2024/01/19 01:03:32;;;;;;;5.00;0.70;;;1.10;99.90;;;;;;5058804;28;20036;-47
2024/01/19 01:05:59;;;;;;;4.00;0.63;;;1.10;99.90;;;;;;5037935;28;20048;-47
2024/01/19 01:08:26;;;;;;;1.30;0.47;;;1.30;99.90;;;;;;5063840;28;20223;-47
2024/01/19 01:10:52;;;;;;;3.85;0.55;;;1.20;99.90;;;;;;5063288;28;20052;-47
2024/01/19 01:13:18;;;;;;;5.15;0.80;;;1.20;99.90;;;;;;5061982;28;20487;-48
2024/01/19 01:15:44;;;;;;;3.22;1.00;;;1.10;99.90;;;;;;5061318;28;20041;-49
2024/01/19 01:18:10;;;;;;;1.42;0.60;;;1.10;99.90;;;;;;5064135;28;20032;-48
2024/01/19 01:20:37;;;;;;;2.58;0.65;;;1.10;99.90;;;;;;5063754;28;20490;-49
2024/01/19 01:23:03;;;;;;;2.50;0.68;;;1.10;99.90;;;;;;5064594;28;20490;-50
2024/01/19 01:25:30;;;;;;;3.53;0.60;;;1.00;99.90;;;;;;5063770;28;20094;-48
2024/01/19 01:27:56;;;;;;;4.65;0.52;;;0.90;99.90;;;;;;5064101;28;20043;-46
2024/01/19 01:30:23;;;;;;;3.13;0.70;;;0.90;99.90;;;;;;5063153;28;20523;-48
2024/01/19 01:32:48;;;;;;;3.17;0.57;;;0.80;99.90;;;;;;5064296;28;20075;-51
2024/01/19 01:35:14;;;;;;;4.43;1.02;;;0.70;99.90;;;;;;5063338;28;20119;-51
2024/01/19 01:37:40;;;;;;;2.03;0.77;;;0.60;99.90;;;;;;5061750;28;20510;-52
2024/01/19 01:40:07;;;;;;;3.38;0.88;;;0.50;99.90;;;;;;5060330;28;20108;-51
2024/01/19 01:42:33;;;;;;;1.40;0.63;;;0.50;99.90;;;;;;5067033;28;20564;-47
2024/01/19 01:45:00;;;;;;;3.25;0.75;;;0.50;99.90;;;;;;5062769;28;20406;-48
2024/01/19 01:47:27;;;;;;;3.83;0.85;;;0.40;99.90;;;;;;5062390;28;20045;-48
2024/01/19 01:49:56;;;;;;;3.13;0.95;;;0.40;99.90;;;;;;5057776;28;20493;-49
2024/01/19 01:52:22;;;;;;;;;;;0.30;99.90;;;;;;5063685;28;20048;-49
2024/01/19 01:54:48;;;;;;;7.18;0.85;;;0.30;99.90;;;;;;5067605;28;20386;-50
2024/01/19 01:57:17;;;;;;;5.18;1.38;;;0.20;99.90;;;;;;5062031;28;20044;-47
2024/01/19 01:59:43;;;;;;;6.63;1.35;;;0.20;99.90;;;;;;5051305;28;20041;-47
2024/01/19 02:02:09;;;;;;;4.28;1.20;;;0.20;99.90;;;;;;5063657;28;20032;-47
2024/01/19 02:04:35;;;;;;;4.50;1.00;;;0.30;99.90;;;;;;5063390;28;20415;-47
2024/01/19 02:07:01;;;;;;;6.97;1.35;;;0.20;99.90;;;;;;5067175;28;20036;-50
2024/01/19 02:09:27;;;;;;;2.88;0.70;;;0.30;99.90;;;;;;5058354;28;20507;-52
2024/01/19 02:11:53;;;;;;;3.22;0.70;;;0.20;99.90;;;;;;5054424;28;20072;-48
2024/01/19 02:14:19;;;;;;;5.07;0.90;;;0.30;99.90;;;;;;5056041;28;20531;-49
2024/01/19 02:16:44;;;;;;;5.25;0.85;;;0.40;99.90;;;;;;5056718;28;20032;-46
2024/01/19 02:19:10;;;;;;;5.40;1.00;;;0.40;99.90;;;;;;5050580;28;20041;-50
2024/01/19 02:21:36;;;;;;;4.70;1.20;;;0.60;99.90;;;;;;5064037;28;20037;-50
2024/01/19 02:24:11;;;;;;;3.60;0.90;;;0.70;99.90;;;;;;5060254;28;20439;-48
2024/01/19 02:26:38;;;;;;;3.70;0.90;;;0.70;99.90;;;;;;5036723;28;20079;-48
2024/01/19 02:29:04;;;;;;;6.90;0.85;;;0.70;99.90;;;;;;5062638;28;20143;-53
2024/01/19 02:31:30;;;;;;;7.25;1.15;;;0.70;99.90;;;;;;5045276;28;20556;-48
2024/01/19 02:33:56;;;;;;;3.55;0.90;;;0.90;99.90;;;;;;5062787;28;20036;-52
2024/01/19 02:36:22;;;;;;;2.47;1.10;;;1.00;99.90;;;;;;5040463;28;20051;-49
2024/01/19 02:38:48;;;;;;;7.05;1.30;;;0.90;99.90;;;;;;5064103;28;20037;-50
2024/01/19 02:41:14;;;;;;;3.05;0.80;;;1.00;99.90;;;;;;5057181;28;20149;-47
2024/01/19 02:43:39;;;;;;;3.03;1.00;;;0.90;99.90;;;;;;5061655;28;20037;-48
2024/01/19 02:46:06;;;;;;;6.40;1.30;;;0.90;99.90;;;;;;5055494;28;20036;-48
2024/01/19 02:48:32;;;;;;;4.22;1.05;;;0.70;99.90;;;;;;5060365;28;20041;-49
2024/01/19 02:50:57;;;;;;;4.60;1.15;;;0.70;99.90;;;;;;5062216;28;20495;-51
2024/01/19 02:53:23;;;;;;;4.40;1.00;;;0.70;99.90;;;;;;5041631;28;20041;-56
2024/01/19 02:55:49;;;;;;;5.65;0.80;;;0.50;99.90;;;;;;5063303;28;20079;-51
2024/01/19 02:58:15;;;;;;;4.68;0.77;;;0.50;99.90;;;;;;5061011;28;20407;-49
2024/01/19 03:00:40;;;;;;;5.45;1.23;;;0.30;99.90;;;;;;5063022;28;20438;-50
2024/01/19 03:03:06;;;;;;;4.32;1.00;;;0.30;99.90;;;;;;5060992;28;20048;-50
2024/01/19 03:05:32;;;;;;;4.40;1.02;;;0.30;99.90;;;;;;5061863;28;20040;-51
2024/01/19 03:07:58;;;;;;;6.07;1.27;;;0.10;99.90;;;;;;5062597;28;20045;-48
2024/01/19 03:10:24;;;;;;;11.40;1.67;;;0.10;99.90;;;;;;5061719;28;20043;-47
2024/01/19 03:12:49;;;;;;;5.15;1.15;;;0.10;99.90;;;;;;5059792;28;20509;-49
2024/01/19 03:15:15;;;;;;;6.70;1.35;;;0.10;99.90;;;;;;5062237;28;20450;-50
2024/01/19 03:17:41;;;;;;;4.97;1.10;;;0.10;99.90;;;;;;5062598;28;20037;-50
2024/01/19 03:20:07;;;;;;;5.28;1.10;;;0.00;99.90;;;;;;5061685;28;20156;-48
2024/01/19 03:22:33;;;;;;;8.02;1.40;;;0.00;99.90;;;;;;5060215;28;20040;-47
2024/01/19 03:24:59;;;;;;;5.82;1.10;;;0.10;99.90;;;;;;5062935;28;20033;-51
2024/01/19 03:27:24;;;;;;;6.47;1.27;;;-0.10;99.90;;;;;;5062874;28;20051;-52
2024/01/19 03:29:50;;;;;;;4.13;1.30;;;0.10;99.90;;;;;;5062903;28;20121;-48
2024/01/19 03:32:16;;;;;;;8.70;1.25;;;0.10;99.90;;;;;;5062452;28;20060;-50
2024/01/19 03:34:42;;;;;;;6.70;1.27;;;0.20;99.90;;;;;;5062440;28;20435;-48
2024/01/19 03:37:08;;;;;;;12.85;1.33;;;0.10;99.90;;;;;;5063092;28;20037;-48
2024/01/19 03:39:34;;;;;;;5.80;0.80;;;0.20;99.90;;;;;;5065590;28;20043;-52
2024/01/19 03:42:00;;;;;;;3.47;1.10;;;0.20;99.90;;;;;;5064919;28;20041;-49
2024/01/19 03:44:26;;;;;;;6.38;1.60;;;0.40;99.90;;;;;;5066692;28;20044;-47
2024/01/19 03:46:53;;;;;;;6.85;1.00;;;0.40;99.90;;;;;;5065148;28;20300;-48
2024/01/19 03:49:19;;;;;;;12.65;1.55;;;0.60;99.90;;;;;;5063941;28;20055;-49
2024/01/19 03:52:03;;;;;;;7.35;1.40;;;0.60;99.90;;;;;;5063137;28;20040;-48
2024/01/19 03:54:29;;;;;;;6.13;1.00;;;0.50;99.90;;;;;;5057230;28;20040;-46
2024/01/19 03:57:03;;;;;;;11.30;1.70;;;0.70;99.90;;;;;;5051910;28;20397;-51
2024/01/19 03:59:29;;;;;;;6.60;1.30;;;0.70;99.90;;;;;;5062841;28;20040;-51
2024/01/19 04:01:56;;;;;;;9.88;1.35;;;0.60;99.90;;;;;;5058331;28;20032;-48
2024/01/19 04:04:22;;;;;;;10.05;1.30;;;0.60;99.90;;;;;;5065620;28;20550;-50
2024/01/19 04:06:48;;;;;;;5.78;0.80;;;0.60;99.90;;;;;;5048459;28;20159;-52
2024/01/19 04:09:17;;;;;;;5.03;1.10;;;0.50;99.90;;;;;;5065483;28;20066;-48
2024/01/19 04:11:43;;;;;;;9.48;1.60;;;0.40;99.90;;;;;;5066608;28;20043;-48
2024/01/19 04:14:10;;;;;;;5.60;0.88;;;0.40;99.90;;;;;;5064688;28;20122;-50
2024/01/19 04:16:36;;;;;;;5.15;0.80;;;0.30;99.90;;;;;;5066281;28;20087;-51
2024/01/19 04:19:03;;;;;;;10.55;1.30;;;0.30;99.90;;;;;;5062355;28;20032;-48
2024/01/19 04:21:29;;;;;;;9.30;1.20;;;0.20;99.90;;;;;;5065839;28;20040;-50
2024/01/19 04:23:56;;;;;;;4.35;0.88;;;0.30;99.90;;;;;;5065404;28;20045;-49
2024/01/19 04:26:21;;;;;;;11.60;1.42;;;0.20;99.90;;;;;;5065630;28;20402;-50
2024/01/19 04:28:47;;;;;;;5.18;1.13;;;0.30;99.90;;;;;;5058451;28;20499;-47
2024/01/19 04:31:13;;;;;;;9.13;1.00;;;0.30;99.90;;;;;;5054732;28;20041;-51
2024/01/19 04:33:39;;;;;;;8.55;1.30;;;0.20;99.90;;;;;;5057188;28;20558;-48
2024/01/19 04:36:05;;;;;;;8.80;1.45;;;-0.20;99.90;;;;;;5057358;28;20037;-49
2024/01/19 04:38:31;;;;;;;7.57;1.13;;;0.20;99.90;;;;;;5065018;28;20068;-51
2024/01/19 04:40:57;;;;;;;6.93;1.35;;;0.20;99.90;;;;;;5052593;28;20072;-48
2024/01/19 04:43:23;;;;;;;3.70;1.23;;;0.00;99.90;;;;;;5063793;28;20036;-48
2024/01/19 04:45:49;;;;;;;5.38;1.23;;;0.00;99.90;;;;;;5062875;28;20051;-48
2024/01/19 04:48:14;;;;;;;5.85;1.17;;;-0.10;99.90;;;;;;5064619;28;20098;-52
2024/01/19 04:50:40;;;;;;;7.47;0.80;;;-0.10;99.90;;;;;;5062323;28;20119;-48
2024/01/19 04:53:06;;;;;;;11.80;1.58;;;-0.10;99.90;;;;;;5063689;28;20041;-48
2024/01/19 04:55:31;;;;;;;15.02;2.60;;;0.00;99.90;;;;;;5063255;28;20558;-50
2024/01/19 04:57:57;;;;;;;6.95;1.20;;;-0.10;99.90;;;;;;5063331;28;20040;-50
2024/01/19 05:00:23;;;;;;;9.27;1.15;;;-0.10;99.90;;;;;;5051540;28;20044;-50
2024/01/19 05:02:49;;;;;;;9.77;2.08;;;-0.10;99.90;;;;;;5061472;28;20047;-50
2024/01/19 05:05:15;;;;;;;9.25;1.30;;;-0.20;99.90;;;;;;5060301;28;20202;-48
2024/01/19 05:07:41;;;;;;;4.90;1.17;;;-0.20;99.90;;;;;;5045804;28;20417;-50
2024/01/19 05:10:07;;;;;;;19.95;2.10;;;-0.30;99.90;;;;;;5058813;28;20322;-48
2024/01/19 05:12:33;;;;;;;11.80;1.23;;;-0.20;99.90;;;;;;5060395;28;20063;-51
2024/01/19 05:14:59;;;;;;;5.63;1.17;;;-0.30;99.90;;;;;;5058529;28;20286;-49
2024/01/19 05:17:25;;;;;;;7.88;1.30;;;-0.30;99.90;;;;;;5053484;28;20047;-51
2024/01/19 05:19:50;;;;;;;10.27;1.30;;;-0.30;99.90;;;;;;5055412;28;20041;-51
2024/01/19 05:22:16;;;;;;;9.82;2.10;;;-0.30;99.90;;;;;;5054292;28;20647;-50
2024/01/19 05:24:43;;;;;;;8.57;1.13;;;-0.30;99.90;;;;;;5054054;28;20048;-47
2024/01/19 05:27:09;;;;;;;10.68;1.42;;;-0.30;99.90;;;;;;5052947;28;20041;-50
2024/01/19 05:29:36;;;;;;;6.20;1.45;;;-0.30;99.90;;;;;;5055161;28;20044;-51
2024/01/19 05:32:02;;;;;;;6.78;1.55;;;-0.10;99.90;;;;;;5043548;28;20040;-47
2024/01/19 05:34:28;;;;;;;10.50;1.63;;;0.00;99.90;;;;;;5056263;28;20086;-50
2024/01/19 05:36:54;;;;;;;4.13;1.02;;;0.20;99.90;;;;;;5053559;28;20048;-47
2024/01/19 05:39:20;;;;;;;23.73;1.65;;;0.30;99.90;;;;;;5053460;28;20033;-47
2024/01/19 05:41:46;;;;;;;13.85;1.98;;;0.30;99.90;;;;;;5053607;28;20059;-51
2024/01/19 05:44:12;;;;;;;6.88;1.70;;;0.20;99.90;;;;;;5053713;28;20147;-51
2024/01/19 05:46:38;;;;;;;7.05;1.58;;;0.20;99.90;;;;;;5053933;28;20090;-49
2024/01/19 05:49:04;;;;;;;7.28;1.30;;;0.20;99.90;;;;;;5052187;28;20183;-51
2024/01/19 05:51:31;;;;;;;4.28;1.10;;;0.10;99.90;;;;;;5053975;28;20093;-48
2024/01/19 05:53:58;;;;;;;7.90;1.02;;;0.10;99.90;;;;;;5053400;28;20316;-50
2024/01/19 05:56:24;;;;;;;13.07;1.80;;;0.10;99.90;;;;;;5051702;28;20456;-47
2024/01/19 05:58:50;;;;;;;13.82;1.92;;;0.00;99.90;;;;;;5050868;28;20110;-55
2024/01/19 06:01:16;;;;;;;12.60;1.98;;;-0.10;99.90;;;;;;5049408;28;20032;-52
2024/01/19 06:03:42;;;;;;;10.95;1.48;;;-0.10;99.90;;;;;;5051323;28;20075;-51
2024/01/19 06:06:07;;;;;;;12.10;1.63;;;0.00;99.90;;;;;;5054088;28;20534;-47
2024/01/19 06:08:33;;;;;;;9.77;1.67;;;-0.10;99.90;;;;;;5060001;28;20041;-49
2024/01/19 06:10:59;;;;;;;5.72;1.55;;;-0.20;99.90;;;;;;5059406;28;20151;-51
2024/01/19 06:13:25;;;;;;;9.60;1.33;;;-0.10;99.90;;;;;;5060594;28;20146;-47
2024/01/19 06:15:50;;;;;;;11.60;1.92;;;0.00;99.90;;;;;;5059868;28;20044;-47
2024/01/19 06:18:17;;;;;;;5.78;1.42;;;0.00;99.90;;;;;;5060542;28;20040;-48
2024/01/19 06:20:43;;;;;;;10.43;1.40;;;0.20;99.90;;;;;;5058382;28;20513;-47
2024/01/19 06:23:10;;;;;;;9.02;1.70;;;0.20;99.90;;;;;;5059591;28;20037;-48
2024/01/19 06:25:37;;;;;;;7.57;1.40;;;0.30;99.90;;;;;;5059454;28;20491;-48
2024/01/19 06:28:03;;;;;;;15.38;2.33;;;0.20;99.90;;;;;;5060023;28;20499;-47
2024/01/19 06:30:29;;;;;;;3.97;1.00;;;0.20;99.90;;;;;;5058062;28;20522;-50
2024/01/19 06:32:55;;;;;;;7.93;1.70;;;0.30;99.90;;;;;;5056993;28;20043;-49
2024/01/19 06:35:21;;;;;;;10.88;2.47;;;0.20;99.90;;;;;;5058507;28;20395;-47
2024/01/19 06:37:47;;;;;;;6.50;1.00;;;0.10;99.90;;;;;;5059045;28;20035;-50
2024/01/19 06:40:14;;;;;;;5.75;1.92;;;0.10;99.90;;;;;;5059698;28;20580;-51
2024/01/19 06:42:44;;;;;;;6.53;0.93;;;0.20;99.90;;;;;;5059701;28;20636;-48
2024/01/19 06:45:10;;;;;;;4.13;1.00;;;0.10;99.90;;;;;;5058937;28;20028;-52
2024/01/19 06:47:36;;;;;;;6.28;1.55;;;0.10;99.90;;;;;;5048395;28;20040;-47
2024/01/19 06:50:03;;;;;;;9.65;1.73;;;0.10;99.90;;;;;;5057530;28;20071;-48
2024/01/19 06:52:29;;;;;;;5.57;1.42;;;0.00;99.90;;;;;;5060595;28;20392;-48
2024/01/19 06:54:55;;;;;;;3.40;1.17;;;-0.10;99.90;;;;;;5059952;28;20078;-49
2024/01/19 06:57:21;;;;;;;8.27;1.33;;;0.00;99.90;;;;;;5057884;28;20429;-48
2024/01/19 06:59:47;;;;;;;6.70;1.10;;;0.00;99.90;;;;;;5060172;28;20485;-48
2024/01/19 07:02:13;;;;;;;8.68;1.13;;;0.00;99.90;;;;;;5057601;28;20040;-47
2024/01/19 07:04:39;;;;;;;7.45;1.60;;;-0.20;99.90;;;;;;5060478;28;20521;-50
2024/01/19 07:07:04;;;;;;;7.78;1.90;;;-0.20;99.90;;;;;;5047500;28;20123;-47
2024/01/19 07:09:30;;;;;;;12.35;1.75;;;-0.20;99.90;;;;;;5060016;28;20036;-49
2024/01/19 07:11:56;;;;;;;6.43;0.95;;;-0.20;99.90;;;;;;5054414;28;20040;-49
2024/01/19 07:14:22;;;;;;;6.93;1.60;;;-0.30;99.90;;;;;;5057328;28;20044;-56
2024/01/19 07:16:47;;;;;;;9.05;1.58;;;-0.30;99.90;;;;;;5058803;28;20051;-48
2024/01/19 07:19:13;;;;;;;12.75;1.98;;;-0.30;99.90;;;;;;5056957;28;20044;-49
2024/01/19 07:21:43;;;;;;;12.07;1.73;;;-0.30;99.90;;;;;;5058656;28;20541;-50
2024/01/19 07:24:10;;;;;;;11.63;1.52;;;-0.40;99.90;;;;;;5046040;28;20109;-54
2024/01/19 07:26:36;;;;;;;7.75;1.90;;;-0.40;99.90;;;;;;5058185;28;20060;-48
2024/01/19 07:29:06;;;;;;;11.35;1.85;;;-0.20;99.90;;;;;;5056709;28;20071;-52
2024/01/19 07:31:33;;;;;;;13.00;2.13;;;-0.20;99.90;;;;;;5058845;28;20046;-49
2024/01/19 07:33:59;;;;;;;8.32;1.65;;;0.20;99.90;;;;;;5057915;28;20040;-49
2024/01/19 07:36:25;;;;;;;19.35;2.60;;;-0.20;99.90;;;;;;5058718;28;20043;-50
2024/01/19 07:38:51;;;;;;;13.80;2.10;;;-0.10;99.90;;;;;;5059746;28;20134;-49
2024/01/19 07:41:17;;;;;;;10.02;1.73;;;0.00;99.90;;;;;;5057394;28;20055;-47
2024/01/19 07:43:43;;;;;;;11.57;1.90;;;-0.10;99.90;;;;;;5059003;28;20036;-48
2024/01/19 07:46:11;;;;;;;10.10;1.70;;;0.00;99.90;;;;;;5058966;28;20154;-51
2024/01/19 07:48:37;;;;;;;12.77;2.88;;;0.10;99.90;;;;;;5058934;28;20584;-48
2024/01/19 07:51:03;;;;;;;11.80;2.08;;;0.00;99.90;;;;;;5057324;28;20507;-48
2024/01/19 07:53:29;;;;;;;9.88;1.73;;;0.10;99.90;;;;;;5059929;28;20248;-49
2024/01/19 07:55:54;;;;;;;9.68;2.15;;;0.20;99.90;;;;;;5049051;28;20499;-49
2024/01/19 07:58:21;;;;;;;10.48;1.90;;;0.30;99.90;;;;;;5047956;28;20041;-48
2024/01/19 08:00:47;;;;;;;15.27;2.42;;;0.40;99.90;;;;;;5059831;28;20041;-49
2024/01/19 08:03:14;;;;;;;10.57;2.22;;;0.40;99.90;;;;;;5058175;28;21663;-48
2024/01/19 08:05:39;;;;;;;9.82;1.70;;;0.40;99.90;;;;;;5060371;28;20566;-47
2024/01/19 08:08:05;;;;;;;15.32;2.53;;;0.50;99.90;;;;;;5058497;28;20415;-51
2024/01/19 08:10:32;;;;;;;11.40;2.08;;;0.40;99.90;;;;;;5059929;28;20373;-51
2024/01/19 08:12:59;;;;;;;12.43;2.28;;;0.50;99.90;;;;;;5058582;28;20059;-49
2024/01/19 08:15:25;;;;;;;12.60;1.90;;;0.50;99.90;;;;;;5058670;28;20056;-48
2024/01/19 08:17:51;;;;;;;10.30;1.52;;;0.40;99.90;;;;;;5058584;28;20029;-46
2024/01/19 08:20:17;;;;;;;14.55;2.47;;;0.40;99.90;;;;;;5059012;28;20046;-48
2024/01/19 08:22:43;;;;;;;8.50;1.70;;;0.40;99.90;;;;;;5060897;28;20036;-52
2024/01/19 08:25:09;;;;;;;10.95;2.00;;;0.40;99.90;;;;;;5062505;28;20036;-50
2024/01/19 08:27:39;;;;;;;12.52;1.88;;;0.50;99.90;;;;;;5063127;28;20588;-48
2024/01/19 08:30:05;;;;;;;12.18;2.13;;;0.50;99.90;;;;;;5063387;28;20041;-50
2024/01/19 08:32:31;;;;;;;12.15;1.75;;;0.00;99.90;;;;;;5062162;28;20052;-49
2024/01/19 08:34:57;;;;;;;8.07;1.67;;;0.50;99.90;;;;;;5062753;28;20109;-49
2024/01/19 08:37:23;;;;;;;15.05;2.45;;;0.50;99.90;;;;;;5062166;28;20033;-49
2024/01/19 08:39:49;;;;;;;13.65;1.73;;;0.60;99.90;;;;;;5062888;28;20048;-48
2024/01/19 08:42:14;;;;;;;8.15;2.08;;;0.60;99.90;;;;;;5061735;28;20040;-50
2024/01/19 08:44:44;;;;;;;14.90;2.35;;;0.60;99.90;;;;;;5063406;28;20109;-49
2024/01/19 08:47:10;;;;;;;11.73;1.85;;;0.60;99.90;;;;;;5062603;28;20036;-49
2024/01/19 08:49:36;;;;;;;21.10;3.53;;;0.70;99.90;;;;;;5061891;28;20676;-49
2024/01/19 08:52:02;;;;;;;8.65;2.13;;;0.80;99.90;;;;;;5062738;28;20046;-47
2024/01/19 08:54:28;;;;;;;13.05;2.25;;;0.90;99.90;;;;;;5063061;28;20421;-49
2024/01/19 08:56:54;;;;;;;8.63;1.92;;;0.90;99.90;;;;;;5062476;28;20612;-51
2024/01/19 08:59:21;;;;;;;9.93;2.38;;;1.10;99.90;;;;;;5063179;28;20033;-49
2024/01/19 09:01:47;;;;;;;10.77;1.85;;;1.10;99.90;;;;;;5062474;28;20044;-47
2024/01/19 09:04:13;;;;;;;11.95;2.22;;;1.10;99.90;;;;;;5062808;28;20448;-49
2024/01/19 09:06:39;;;;;;;10.52;1.50;;;1.20;99.90;;;;;;5063136;28;20085;-52
2024/01/19 09:09:04;;;;;;;16.98;3.08;;;1.20;99.90;;;;;;5062483;28;20043;-52
2024/01/19 09:11:34;;;;;;;12.63;2.83;;;1.30;99.90;;;;;;5061434;28;20386;-49
2024/01/19 09:14:00;;;;;;;14.43;1.95;;;1.50;99.90;;;;;;5062556;28;20654;-50
2024/01/19 09:16:25;;;;;;;5.72;1.92;;;1.50;99.90;;;;;;5062059;28;20937;-48
2024/01/19 09:18:51;;;;;;;7.50;1.58;;;1.60;99.90;;;;;;5062036;28;20044;-49
2024/01/19 09:21:17;;;;;;;11.15;1.83;;;1.70;99.90;;;;;;5062279;28;20036;-49
2024/01/19 09:23:43;;;;;;;10.25;1.67;;;1.80;99.90;;;;;;5062723;28;20182;-48
2024/01/19 09:26:22;;;;;;;7.03;1.70;;;1.80;99.90;;;;;;5061662;28;20419;-49
2024/01/19 09:28:48;;;;;;;10.93;2.92;;;1.90;99.90;;;;;;5063662;28;20048;-51
2024/01/19 09:31:14;;;;;;;16.70;2.63;;;1.70;99.90;;;;;;5062488;28;20044;-50
2024/01/19 09:33:41;;;;;;;12.70;1.73;;;1.80;99.90;;;;;;5062305;28;20068;-48
2024/01/19 09:36:07;;;;;;;9.40;1.98;;;1.80;99.90;;;;;;5061704;28;20474;-51
2024/01/19 09:38:37;;;;;;;9.20;2.10;;;1.80;99.90;;;;;;5062148;28;20094;-49
2024/01/19 09:41:17;;;;;;;8.85;2.03;;;1.80;99.90;;;;;;5061069;28;20468;-49
2024/01/19 09:43:46;;;;;;;7.35;2.00;;;1.80;99.90;;;;;;5062669;28;20495;-52
2024/01/19 09:46:19;;;;;;;11.43;2.25;;;1.90;99.90;;;;;;5062154;28;20128;-50
2024/01/19 09:48:59;;;;;;;6.57;1.60;;;1.90;99.90;;;;;;5062165;28;20044;-48
2024/01/19 09:51:40;;;;;;;4.38;1.50;;;1.90;99.90;;;;;;5061595;28;20491;-49
2024/01/19 09:54:09;;;;;;;7.20;1.70;;;2.00;99.90;;;;;;5060297;28;20044;-49
2024/01/19 09:56:36;;;;;;;8.57;1.88;;;2.00;99.90;;;;;;5049264;28;20044;-47
2024/01/19 09:59:05;;;;;;;7.47;1.80;;;2.10;99.90;;;;;;5061410;28;20033;-49
2024/01/19 10:01:32;;;;;;;10.23;1.75;;;2.20;99.90;;;;;;5061195;28;20403;-47
2024/01/19 10:03:58;;;;;;;17.95;2.47;;;2.20;99.90;;;;;;5063261;28;20483;-49
2024/01/19 10:06:25;;;;;;;11.40;1.90;;;2.40;99.90;;;;;;5061952;28;20044;-48
2024/01/19 10:08:55;;;;;;;7.57;1.95;;;2.50;99.90;;;;;;5061791;28;20028;-48
2024/01/19 10:11:22;;;;;;;14.45;1.92;;;2.60;99.90;;;;;;5049937;28;20132;-47
2024/01/19 10:13:48;;;;;;;10.63;2.45;;;2.80;99.90;;;;;;5060767;28;20045;-49
2024/01/19 10:16:13;;;;;;;12.38;2.05;;;3.00;99.90;;;;;;5060109;28;20109;-51
2024/01/19 10:18:41;;;;;;;8.93;2.45;;;3.10;99.90;;;;;;5060258;28;20032;-50
2024/01/19 10:21:07;;;;;;;10.95;2.38;;;3.10;99.90;;;;;;5048392;28;20134;-50
2024/01/19 10:23:33;;;;;;;8.77;2.35;;;3.00;99.90;;;;;;5061509;28;21014;-48
2024/01/19 10:26:13;;;;;;;8.48;2.00;;;3.10;99.90;;;;;;5061583;28;20040;-49
2024/01/19 10:28:39;;;;;;;8.63;1.60;;;3.20;99.90;;;;;;5061257;28;20599;-50
2024/01/19 10:31:22;;;;;;;15.77;2.80;;;3.20;99.90;;;;;;5061519;28;20040;-49
2024/01/19 10:33:52;;;;;;;12.48;2.17;;;3.30;99.90;;;;;;5059984;28;20530;-49
2024/01/19 10:36:18;;;;;;;16.08;2.47;;;3.30;99.90;;;;;;5061820;28;20048;-49
2024/01/19 10:38:44;;;;;;;18.65;1.98;;;3.30;99.90;;;;;;5060747;28;20029;-50
2024/01/19 10:41:17;;;;;;;7.32;1.73;;;3.40;99.90;;;;;;5050242;28;20127;-48
2024/01/19 10:43:43;;;;;;;10.75;2.55;;;3.40;99.90;;;;;;5050577;28;20071;-51
2024/01/19 10:46:19;;;;;;;12.95;2.38;;;3.40;99.90;;;;;;5060697;28;20078;-49
2024/01/19 10:48:50;;;;;;;11.18;1.70;;;3.50;99.90;;;;;;5060156;28;20403;-50
2024/01/19 10:51:19;;;;;;;8.48;2.13;;;3.50;99.90;;;;;;5060756;28;20046;-49
2024/01/19 10:53:48;;;;;;;10.07;1.70;;;3.60;99.90;;;;;;5059444;28;20109;-48
2024/01/19 10:56:21;;;;;;;8.60;2.30;;;3.70;99.90;;;;;;5059973;28;20044;-50
2024/01/19 10:58:47;;;;;;;7.72;1.88;;;3.70;99.90;;;;;;5059140;28;20035;-48
2024/01/19 11:01:17;;;;;;;7.55;1.90;;;3.80;99.90;;;;;;5054239;28;20041;-50
2024/01/19 11:03:43;;;;;;;10.80;1.95;;;3.80;99.90;;;;;;5056694;28;20036;-49
2024/01/19 11:06:10;;;;;;;10.02;2.67;;;4.00;99.90;;;;;;5058582;28;20137;-49
2024/01/19 11:08:39;;;;;;;11.60;3.05;;;4.10;99.90;;;;;;5059664;28;20072;-49
2024/01/19 11:11:05;;;;;;;;;;;4.10;99.90;;;;;;5061057;28;20036;-48
2024/01/19 11:13:42;;;;;;;11.98;2.28;;;4.30;99.90;;;;;;5059031;28;20423;-48
2024/01/19 11:16:13;;;;;;;8.73;2.03;;;4.60;99.90;;;;;;5060128;28;20089;-48
2024/01/19 11:18:39;;;;;;;11.15;1.70;;;4.70;99.90;;;;;;5060596;28;20052;-50
2024/01/19 11:21:06;;;;;;;11.30;1.73;;;4.90;99.90;;;;;;5060262;28;20063;-48
2024/01/19 11:23:33;;;;;;;8.73;1.65;;;4.90;99.90;;;;;;5060811;28;20229;-49
2024/01/19 11:26:14;;;;;;;8.25;1.42;;;5.10;99.90;;;;;;5060651;28;20183;-52
2024/01/19 11:28:47;;;;;;;6.57;1.38;;;5.30;99.90;;;;;;5059035;28;20167;-51
2024/01/19 11:31:17;;;;;;;6.75;1.23;;;5.40;99.90;;;;;;5061203;28;20154;-49
2024/01/19 11:33:43;;;;;;;7.65;1.70;;;5.40;99.90;;;;;;5060096;28;20040;-48
2024/01/19 11:36:09;;;;;;;7.78;1.58;;;5.50;99.90;;;;;;5060349;28;20045;-52
2024/01/19 11:38:46;;;;;;;9.27;1.67;;;5.60;99.90;;;;;;5059341;28;20482;-49
2024/01/19 11:41:34;;;;;;;7.93;1.70;;;5.50;99.90;;;;;;5059889;28;20033;-53
2024/01/19 11:44:06;;;;;;;9.35;1.83;;;5.60;99.90;;;;;;5060767;28;20039;-50
2024/01/19 11:46:45;;;;;;;9.25;2.28;;;5.60;99.90;;;;;;5059417;28;20063;-49
2024/01/19 11:49:29;;;;;;;11.68;2.00;;;5.70;99.90;;;;;;5060416;28;20055;-50
2024/01/19 11:51:59;;;;;;;13.68;2.05;;;5.80;99.90;;;;;;5060806;28;20082;-50
2024/01/19 11:54:33;;;;;;;13.10;1.70;;;5.70;99.90;;;;;;5059639;28;20073;-48
2024/01/19 11:57:28;;;;;;;14.40;2.00;;;5.80;99.90;;;;;;5060875;28;20097;-49
2024/01/19 11:59:54;;;;;;;8.35;1.63;;;5.80;99.90;;;;;;5047020;28;20056;-48
2024/01/19 12:02:21;;;;;;;12.57;1.60;;;6.00;99.90;;;;;;5062948;28;20466;-50
2024/01/19 12:04:52;;;;;;;9.50;1.50;;;6.10;99.90;;;;;;5064634;28;20036;-49
2024/01/19 12:07:19;;;;;;;7.93;1.50;;;6.00;99.90;;;;;;5064128;28;20056;-48
2024/01/19 12:10:02;;;;;;;10.30;1.65;;;6.10;99.90;;;;;;5064725;28;20044;-51
2024/01/19 12:12:27;;;;;;;12.38;1.75;;;6.20;99.90;;;;;;5062959;28;20055;-48
2024/01/19 12:14:53;;;;;;;12.57;2.30;;;6.10;99.90;;;;;;5063974;28;20041;-48
2024/01/19 12:17:20;;;;;;;10.57;1.50;;;6.20;99.90;;;;;;5064767;28;20033;-51
2024/01/19 12:19:46;;;;;;;8.45;1.33;;;6.30;99.90;;;;;;5050096;28;20037;-48
2024/01/19 12:22:13;;;;;;;10.48;1.73;;;6.30;99.90;;;;;;5062382;28;20044;-50
2024/01/19 12:24:39;;;;;;;11.00;2.00;;;6.20;99.90;;;;;;5064347;28;20037;-52
2024/01/19 12:27:05;;;;;;;8.38;2.05;;;6.30;99.90;;;;;;5063072;28;20414;-49
2024/01/19 12:29:31;;;;;;;5.20;1.63;;;6.20;99.90;;;;;;5052624;28;20043;-49
2024/01/19 12:32:13;;;;;;;9.05;1.73;;;6.30;99.90;;;;;;5062565;28;20510;-48
2024/01/19 12:34:39;;;;;;;8.40;2.22;;;6.20;99.90;;;;;;5063624;28;20504;-50
2024/01/19 12:37:05;;;;;;;15.45;2.22;;;6.10;99.90;;;;;;5061222;28;20119;-48
2024/01/19 12:39:31;;;;;;;11.18;1.90;;;6.00;99.90;;;;;;5063582;28;20114;-48
2024/01/19 12:42:02;;;;;;;11.23;1.85;;;5.90;99.90;;;;;;5063604;28;20637;-49
2024/01/19 12:44:28;;;;;;;4.53;1.25;;;5.80;99.90;;;;;;5052504;28;20055;-48
2024/01/19 12:46:58;;;;;;;7.82;1.58;;;5.80;99.90;;;;;;5063085;28;20032;-49
2024/01/19 12:49:24;;;;;;;6.47;1.58;;;5.70;99.90;;;;;;5062539;28;20534;-50
2024/01/19 12:51:50;;;;;;;8.45;1.60;;;5.50;99.90;;;;;;5063579;28;20037;-48